Time;durP1;ratioP1;P1;durP2;ratioP2;P2;SDS_P1;SDS_P2;PMS_P1;PMS_P2;Temp;Humidity;BMP_temperature;BMP_pressure;BME280_temperature;BME280_humidity;BME280_pressure;Samples;Min_cycle;Max_cycle;Signal;HPM_P1;HPM_P2
2022/04/06 00:01:39;;;;;;;14.82;13.02;;;;;;;2.86;86.78;97466.28;5025228;28;20097;-58
2022/04/06 00:04:05;;;;;;;14.38;12.88;;;;;;;2.82;86.90;97462.16;5007439;28;20034;-58
2022/04/06 00:06:30;;;;;;;14.05;12.57;;;;;;;2.97;87.16;97472.84;5024848;28;20326;-58
2022/04/06 00:08:56;;;;;;;12.48;11.18;;;;;;;2.87;86.93;97470.50;5024861;28;20026;-58
2022/04/06 00:11:21;;;;;;;14.25;12.35;;;;;;;2.89;86.75;97479.00;5024186;28;20034;-57
2022/04/06 00:13:48;;;;;;;14.93;12.55;;;;;;;2.99;86.53;97479.56;5024679;28;20026;-57
2022/04/06 00:16:14;;;;;;;13.38;11.88;;;;;;;3.03;86.27;97486.28;5024903;28;20026;-57
2022/04/06 00:18:39;;;;;;;12.23;11.02;;;;;;;3.17;86.49;97485.06;5036312;28;20095;-58
2022/04/06 00:21:05;;;;;;;11.43;10.20;;;;;;;3.19;85.95;97486.72;5033652;28;20030;-58
2022/04/06 00:23:31;;;;;;;11.63;10.43;;;;;;;3.16;85.74;97480.84;5023893;28;20022;-58
2022/04/06 00:25:56;;;;;;;12.88;10.95;;;;;;;3.14;85.92;97485.16;5024440;28;20093;-58
2022/04/06 00:28:22;;;;;;;10.95;9.75;;;;;;;3.27;85.47;97489.88;5024540;28;20255;-58
2022/04/06 00:30:48;;;;;;;10.75;9.65;;;;;;;3.20;85.04;97480.69;5024190;28;20029;-58
2022/04/06 00:33:13;;;;;;;11.63;10.43;;;;;;;3.23;85.24;97493.41;5024477;28;20132;-58
2022/04/06 00:35:39;;;;;;;11.57;9.48;;;;;;;3.05;85.25;97492.19;5024389;28;20033;-57
2022/04/06 00:38:07;;;;;;;11.05;9.90;;;;;;;3.00;85.30;97485.53;5007033;28;20343;-57
2022/04/06 00:40:35;;;;;;;10.20;9.20;;;;;;;3.24;84.92;97507.88;5024381;28;20030;-58
2022/04/06 00:43:07;;;;;;;9.13;8.23;;;;;;;3.01;84.70;97465.03;5024349;28;20037;-58
2022/04/06 00:45:32;;;;;;;9.85;8.60;;;;;;;3.25;84.21;97501.03;5024293;28;20030;-57
2022/04/06 00:47:58;;;;;;;9.38;8.40;;;;;;;3.27;84.32;97505.22;5006621;28;20080;-57
2022/04/06 00:50:24;;;;;;;9.30;8.23;;;;;;;3.13;83.34;97506.50;5023927;28;20025;-57
2022/04/06 00:52:56;;;;;;;9.30;8.35;;;;;;;3.16;84.46;97499.56;5006612;28;20014;-57
2022/04/06 00:55:29;;;;;;;8.50;7.57;;;;;;;3.10;83.49;97505.69;5024333;28;20080;-57
2022/04/06 00:57:56;;;;;;;9.55;8.55;;;;;;;3.24;83.75;97512.16;5024032;28;20038;-57
2022/04/06 01:00:21;;;;;;;8.77;7.78;;;;;;;3.21;83.41;97513.06;5023978;28;20030;-57
2022/04/06 01:02:47;;;;;;;8.60;7.80;;;;;;;3.29;83.01;97510.28;5023679;28;20045;-58
2022/04/06 01:05:13;;;;;;;8.57;7.68;;;;;;;3.27;82.63;97510.34;5023831;28;20053;-58
2022/04/06 01:07:40;;;;;;;8.48;7.68;;;;;;;3.37;82.46;97516.03;5023959;28;20030;-57
2022/04/06 01:10:06;;;;;;;8.43;7.53;;;;;;;3.33;82.14;97516.19;5023628;28;20026;-58
2022/04/06 01:12:34;;;;;;;8.63;7.60;;;;;;;2.98;82.34;97448.94;5006346;28;20293;-58
2022/04/06 01:14:59;;;;;;;8.73;7.78;;;;;;;3.27;81.42;97514.63;5023569;28;20133;-58
2022/04/06 01:17:32;;;;;;;9.10;8.07;;;;;;;3.31;81.65;97526.47;5023588;28;20034;-58
2022/04/06 01:19:57;;;;;;;8.88;7.97;;;;;;;3.30;81.85;97518.84;5023521;28;20052;-57
2022/04/06 01:22:23;;;;;;;8.25;7.35;;;;;;;3.30;81.25;97511.16;5023762;28;20030;-58
2022/04/06 01:24:48;;;;;;;7.78;7.07;;;;;;;3.40;80.73;97517.69;5022853;28;20036;-59
2022/04/06 01:27:15;;;;;;;7.88;7.07;;;;;;;3.44;81.80;97517.56;5023576;28;20026;-58
2022/04/06 01:29:41;;;;;;;8.73;7.60;;;;;;;3.37;80.87;97521.16;5023234;28;20093;-58
2022/04/06 01:32:12;;;;;;;8.05;7.25;;;;;;;3.03;80.88;97463.25;5023577;28;20080;-58
2022/04/06 01:34:38;;;;;;;8.23;7.43;;;;;;;3.36;80.05;97516.09;5023081;28;20137;-57
2022/04/06 01:37:06;;;;;;;7.82;7.05;;;;;;;3.10;80.55;97471.63;5005650;28;20451;-57
2022/04/06 01:39:33;;;;;;;7.75;6.95;;;;;;;3.52;80.09;97529.28;5005794;28;20045;-56
2022/04/06 01:41:58;;;;;;;8.55;7.15;;;;;;;3.37;80.45;97531.41;5023425;28;20029;-57
2022/04/06 01:44:24;;;;;;;8.48;7.57;;;;;;;3.38;80.34;97527.13;5023133;28;20022;-57
2022/04/06 01:46:50;;;;;;;8.73;7.57;;;;;;;3.33;80.72;97532.34;5023396;28;20030;-59
2022/04/06 01:52:12;;;;;;;7.88;7.07;;;;;;;3.45;80.02;97533.75;5020918;28;20025;-58
2022/04/06 01:54:45;;;;;;;8.63;7.57;;;;;;;3.06;80.11;97470.84;5023278;28;20054;-57
2022/04/06 01:57:12;;;;;;;8.07;7.25;;;;;;;3.45;80.30;97536.31;5023118;28;20026;-58
2022/04/06 01:59:37;;;;;;;7.88;7.07;;;;;;;3.48;79.85;97540.50;5023244;28;20223;-58
2022/04/06 02:02:05;;;;;;;8.05;7.22;;;;;;;3.06;79.77;97483.63;5022796;28;20037;-58
2022/04/06 02:04:30;;;;;;;8.05;7.25;;;;;;;3.41;80.54;97548.34;5023238;28;20030;-58
2022/04/06 02:06:56;;;;;;;7.72;6.93;;;;;;;3.35;80.19;97533.16;5022849;28;20250;-58
2022/04/06 02:09:22;;;;;;;8.10;7.30;;;;;;;3.28;80.45;97549.56;5023140;28;20328;-58
2022/04/06 02:11:48;;;;;;;6.70;6.10;;;;;;;3.22;81.06;97550.56;5022784;28;20026;-58
2022/04/06 02:14:14;;;;;;;7.10;6.40;;;;;;;3.36;81.75;97562.13;5023003;28;20041;-58
2022/04/06 02:16:41;;;;;;;6.00;5.40;;;;;;;3.16;81.84;97563.50;5023470;28;20242;-58
2022/04/06 02:19:06;;;;;;;6.03;5.25;;;;;;;3.02;82.15;97573.25;5022906;28;20033;-57
2022/04/06 02:21:32;;;;;;;6.88;5.93;;;;;;;2.94;82.48;97564.06;5005537;28;20084;-57
2022/04/06 02:23:59;;;;;;;4.65;4.25;;;;;;;2.85;82.46;97582.19;5022741;28;20033;-58
2022/04/06 02:26:25;;;;;;;5.13;4.50;;;;;;;2.95;82.66;97587.94;5022521;28;20349;-57
2022/04/06 02:28:51;;;;;;;5.53;4.65;;;;;;;2.91;82.63;97584.59;5022754;28;20097;-58
2022/04/06 02:31:17;;;;;;;4.55;4.15;;;;;;;2.87;82.05;97585.53;5005479;28;20018;-58
2022/04/06 02:33:42;;;;;;;5.05;4.55;;;;;;;2.94;82.46;97588.78;5023171;28;20022;-57
2022/04/06 02:36:08;;;;;;;4.78;4.18;;;;;;;2.92;81.54;97587.97;5022569;28;20025;-58
2022/04/06 02:38:38;;;;;;;4.88;4.40;;;;;;;2.82;81.39;97592.50;5022255;28;20210;-58
2022/04/06 02:41:07;;;;;;;5.07;3.92;;;;;;;2.87;80.61;97606.00;5022926;28;20032;-58
2022/04/06 02:43:33;;;;;;;4.30;3.90;;;;;;;2.90;78.60;97610.19;5022982;28;20093;-59
2022/04/06 02:46:00;;;;;;;4.38;3.50;;;;;;;2.71;76.85;97594.47;5005311;28;20033;-58
2022/04/06 02:48:25;;;;;;;3.05;2.72;;;;;;;2.72;77.90;97616.56;5026504;28;20041;-58
2022/04/06 02:50:51;;;;;;;3.47;3.17;;;;;;;2.82;77.27;97615.50;5008629;28;20021;-58
2022/04/06 02:53:16;;;;;;;3.38;3.08;;;;;;;2.81;77.12;97618.94;5026297;28;20314;-58
2022/04/06 02:55:42;;;;;;;2.90;2.70;;;;;;;2.81;75.81;97629.16;5026538;28;20032;-58
2022/04/06 02:58:07;;;;;;;2.90;2.60;;;;;;;2.78;75.56;97636.91;5026348;28;20030;-58
2022/04/06 03:00:34;;;;;;;2.80;2.60;;;;;;;2.76;76.04;97653.97;5026195;28;20033;-58
2022/04/06 03:03:00;;;;;;;3.13;2.83;;;;;;;2.73;75.78;97639.53;5026219;28;20037;-58
2022/04/06 03:05:25;;;;;;;2.97;2.67;;;;;;;2.86;75.93;97642.66;5026040;28;20179;-58
2022/04/06 03:07:51;;;;;;;2.83;2.53;;;;;;;2.71;74.80;97648.13;5025927;28;20021;-59
2022/04/06 03:10:17;;;;;;;2.17;1.80;;;;;;;2.66;73.25;97648.22;5025845;28;20051;-59
2022/04/06 03:12:43;;;;;;;2.75;1.92;;;;;;;2.66;71.14;97665.28;5025839;28;20081;-59
2022/04/06 03:15:09;;;;;;;1.63;1.52;;;;;;;2.58;70.82;97670.56;5025769;28;20026;-58
2022/04/06 03:17:35;;;;;;;1.10;1.00;;;;;;;2.60;70.65;97661.16;5025946;28;20018;-59
2022/04/06 03:20:02;;;;;;;1.02;0.93;;;;;;;2.49;70.75;97697.13;5025567;28;20084;-59
2022/04/06 03:22:29;;;;;;;1.08;1.08;;;;;;;2.54;70.09;97691.94;5025850;28;20033;-58
2022/04/06 03:24:55;;;;;;;1.40;1.23;;;;;;;2.49;70.11;97689.47;5008226;28;20048;-58
2022/04/06 03:27:21;;;;;;;1.58;1.15;;;;;;;2.64;69.74;97698.53;5025637;28;20030;-58
2022/04/06 03:29:46;;;;;;;2.35;1.30;;;;;;;2.68;69.88;97696.72;5025411;28;20316;-58
2022/04/06 03:32:12;;;;;;;1.30;1.20;;;;;;;2.70;69.73;97695.00;5025648;28;20041;-58
2022/04/06 03:34:38;;;;;;;0.85;0.77;;;;;;;2.58;69.14;97714.84;5008205;28;20219;-58
2022/04/06 03:37:03;;;;;;;1.50;0.98;;;;;;;2.67;68.88;97712.97;5025421;28;20322;-58
2022/04/06 03:39:29;;;;;;;1.55;1.02;;;;;;;2.59;67.98;97719.09;5024553;28;20029;-58
2022/04/06 03:41:54;;;;;;;1.55;1.00;;;;;;;2.57;68.02;97714.88;5024974;28;20029;-58
2022/04/06 03:44:20;;;;;;;1.52;1.00;;;;;;;2.20;65.06;97725.84;5007928;28;20214;-58
2022/04/06 03:46:46;;;;;;;0.77;0.70;;;;;;;2.52;65.79;97730.31;5025404;28;20044;-57
2022/04/06 03:49:11;;;;;;;0.80;0.70;;;;;;;2.48;65.20;97736.34;5025227;28;20032;-58
2022/04/06 03:51:37;;;;;;;2.70;0.70;;;;;;;2.45;65.95;97740.66;5025012;28;20026;-59
2022/04/06 03:54:03;;;;;;;1.25;0.85;;;;;;;2.56;64.99;97752.34;5024942;28;20376;-59
2022/04/06 03:56:29;;;;;;;0.60;0.60;;;;;;;2.52;65.67;97742.22;5025112;28;20048;-59
2022/04/06 03:58:55;;;;;;;1.10;0.70;;;;;;;2.68;64.12;97770.84;5024069;28;20025;-58
2022/04/06 04:01:21;;;;;;;0.93;0.80;;;;;;;2.37;64.82;97776.59;5024384;28;20029;-58
2022/04/06 04:03:47;;;;;;;2.75;2.25;;;;;;;2.58;66.40;97785.56;5037625;28;20184;-58
2022/04/06 04:06:13;;;;;;;0.80;0.80;;;;;;;2.62;64.06;97786.31;5034677;28;20033;-58
2022/04/06 04:08:39;;;;;;;1.95;0.73;;;;;;;2.50;63.83;97788.25;5024340;28;20025;-58
2022/04/06 04:11:04;;;;;;;1.85;0.90;;;;;;;2.55;64.09;97791.56;5024513;28;20030;-58
2022/04/06 04:13:30;;;;;;;1.17;0.90;;;;;;;2.61;63.68;97793.16;5024962;28;20032;-58
2022/04/06 04:15:55;;;;;;;2.00;0.60;;;;;;;2.44;62.54;97796.03;5024697;28;20026;-57
2022/04/06 04:18:21;;;;;;;0.63;0.60;;;;;;;2.38;63.66;97798.69;5024818;28;20219;-57
2022/04/06 04:20:47;;;;;;;0.82;0.70;;;;;;;2.45;63.79;97801.97;5024406;28;20073;-58
2022/04/06 04:23:12;;;;;;;0.80;0.80;;;;;;;2.42;62.69;97815.66;5024460;28;20037;-57
2022/04/06 04:25:38;;;;;;;0.85;0.80;;;;;;;2.43;62.62;97812.22;5024563;28;20219;-58
2022/04/06 04:28:05;;;;;;;0.75;0.70;;;;;;;2.47;63.03;97821.53;5024502;28;20084;-58
2022/04/06 04:30:31;;;;;;;0.80;0.80;;;;;;;2.65;63.08;97822.03;5024295;28;20030;-58
2022/04/06 04:32:56;;;;;;;1.33;0.80;;;;;;;2.62;63.02;97815.25;5024284;28;20195;-58
2022/04/06 04:35:22;;;;;;;1.08;0.75;;;;;;;2.53;62.67;97826.50;5024379;28;20084;-58
2022/04/06 04:37:47;;;;;;;1.17;0.70;;;;;;;2.65;61.98;97837.34;5024318;28;20217;-58
2022/04/06 04:40:16;;;;;;;1.55;0.90;;;;;;;2.73;62.67;97835.50;5020560;28;20022;-59
2022/04/06 04:42:42;;;;;;;1.75;0.80;;;;;;;2.38;61.07;97844.66;5024050;28;20038;-59
2022/04/06 04:45:09;;;;;;;0.70;0.70;;;;;;;2.53;61.83;97844.38;5010471;28;20234;-57
2022/04/06 04:47:35;;;;;;;1.15;0.80;;;;;;;2.64;61.31;97853.59;5014167;28;20041;-58
2022/04/06 04:50:00;;;;;;;2.25;1.30;;;;;;;2.62;60.55;97850.19;5016578;28;20364;-56
2022/04/06 04:52:27;;;;;;;0.85;0.68;;;;;;;2.66;60.77;97860.31;4996794;28;20046;-57
2022/04/06 04:54:53;;;;;;;2.45;0.93;;;;;;;2.69;61.01;97862.81;5010916;28;20211;-57
2022/04/06 04:57:18;;;;;;;1.10;0.80;;;;;;;2.47;60.52;97867.50;5014811;28;20021;-57
2022/04/06 04:59:44;;;;;;;1.20;0.95;;;;;;;2.54;60.13;97869.06;5015847;28;20037;-57
2022/04/06 05:02:09;;;;;;;1.38;1.00;;;;;;;2.70;59.99;97884.94;4995110;28;20034;-56
2022/04/06 05:04:35;;;;;;;0.95;0.80;;;;;;;2.72;59.38;97879.81;5013892;28;20022;-58
2022/04/06 05:07:01;;;;;;;0.60;0.60;;;;;;;2.70;59.74;97868.78;5021924;28;20026;-57
2022/04/06 05:09:26;;;;;;;1.70;1.10;;;;;;;2.82;58.49;97890.69;5023152;28;20041;-57
2022/04/06 05:11:52;;;;;;;2.45;1.00;;;;;;;3.01;59.97;97891.19;5023601;28;20040;-57
2022/04/06 05:14:17;;;;;;;0.55;0.50;;;;;;;2.88;59.32;97896.53;5023747;28;20026;-58
2022/04/06 05:16:43;;;;;;;0.70;0.70;;;;;;;2.68;59.68;97894.38;5023078;28;20028;-58
2022/04/06 05:19:09;;;;;;;0.73;0.70;;;;;;;2.47;59.72;97889.66;5022125;28;20038;-58
2022/04/06 05:21:34;;;;;;;1.60;0.80;;;;;;;2.68;58.24;97908.84;5004896;28;20036;-58
2022/04/06 05:24:00;;;;;;;3.42;0.90;;;;;;;2.84;59.49;97915.38;5014802;28;20049;-59
2022/04/06 05:26:25;;;;;;;1.77;0.95;;;;;;;2.63;58.16;97923.44;5005647;28;20029;-58
2022/04/06 05:28:51;;;;;;;2.88;0.85;;;;;;;2.51;59.69;97927.91;5029503;28;20043;-58
2022/04/06 05:31:17;;;;;;;2.40;1.48;;;;;;;2.78;59.71;97920.59;5022233;28;20025;-59
2022/04/06 05:33:44;;;;;;;1.80;1.10;;;;;;;2.91;59.23;97929.72;5023348;28;20026;-58
2022/04/06 05:36:10;;;;;;;3.38;0.90;;;;;;;2.98;60.89;97904.03;5029857;28;20029;-58
2022/04/06 05:38:35;;;;;;;1.08;0.80;;;;;;;2.94;58.48;97937.31;5022617;28;20303;-58
2022/04/06 05:41:02;;;;;;;2.53;0.90;;;;;;;3.00;58.11;97936.38;5022486;28;20032;-58
2022/04/06 05:43:28;;;;;;;1.33;0.98;;;;;;;3.07;58.42;97939.66;5022204;28;20029;-58
2022/04/06 05:45:54;;;;;;;0.98;0.77;;;;;;;2.97;58.69;97933.03;5017594;28;20350;-58
2022/04/06 05:48:19;;;;;;;0.95;0.75;;;;;;;3.71;56.53;97937.47;5015505;28;20038;-58
2022/04/06 05:50:45;;;;;;;4.85;0.90;;;;;;;3.35;57.29;97939.09;5017607;28;20018;-58
2022/04/06 05:53:11;;;;;;;0.98;0.90;;;;;;;3.62;57.83;97951.31;4996541;28;20064;-57
2022/04/06 05:55:37;;;;;;;1.33;1.00;;;;;;;3.78;57.94;97951.81;5019288;28;20021;-58
2022/04/06 05:58:02;;;;;;;3.03;1.10;;;;;;;3.97;56.79;97951.38;4995468;28;20122;-59
2022/04/06 06:00:28;;;;;;;2.15;1.15;;;;;;;3.87;56.69;97950.75;5014178;28;20025;-59
2022/04/06 06:02:53;;;;;;;1.90;1.08;;;;;;;4.03;57.16;97956.34;5016352;28;20025;-58
2022/04/06 06:05:34;;;;;;;2.17;0.80;;;;;;;4.07;55.20;97959.72;5005935;28;20038;-58
2022/04/06 06:08:00;;;;;;;0.60;0.60;;;;;;;4.06;56.05;97960.56;5022659;28;20050;-58
2022/04/06 06:10:26;;;;;;;0.82;0.80;;;;;;;4.38;54.62;97966.66;5022331;28;20250;-58
2022/04/06 06:12:52;;;;;;;1.52;1.05;;;;;;;4.37;54.80;97975.22;5005205;28;20092;-59
2022/04/06 06:15:17;;;;;;;1.98;0.90;;;;;;;4.75;52.80;97970.88;5022429;28;20029;-59
2022/04/06 06:17:43;;;;;;;1.20;0.70;;;;;;;4.61;53.15;97986.59;5022660;28;20029;-59
2022/04/06 06:20:09;;;;;;;1.23;0.90;;;;;;;4.47;51.01;97976.69;5022351;28;20042;-59
2022/04/06 06:22:35;;;;;;;0.88;0.60;;;;;;;4.89;51.09;97999.56;5025304;28;20029;-59
2022/04/06 06:25:01;;;;;;;0.90;0.63;;;;;;;4.71;49.92;98005.16;5023240;28;20029;-59
2022/04/06 06:27:27;;;;;;;1.95;0.80;;;;;;;4.25;50.48;98002.00;5018143;28;20319;-58
2022/04/06 06:29:52;;;;;;;3.25;0.75;;;;;;;4.71;51.12;98005.16;5019081;28;20036;-59
2022/04/06 06:32:18;;;;;;;1.08;0.75;;;;;;;5.33;50.30;98014.63;5016152;28;20097;-59
2022/04/06 06:34:44;;;;;;;1.10;1.00;;;;;;;5.50;49.26;98016.75;5022816;28;20629;-59
2022/04/06 06:37:10;;;;;;;1.73;0.90;;;;;;;5.27;48.46;98025.94;5021307;28;20030;-59
2022/04/06 06:39:36;;;;;;;0.75;0.68;;;;;;;4.59;48.63;98019.97;5020461;28;20022;-59
2022/04/06 06:42:04;;;;;;;1.42;1.05;;;;;;;5.24;48.74;97968.72;5025945;28;20033;-59
2022/04/06 06:44:29;;;;;;;0.80;0.77;;;;;;;5.54;47.36;98008.06;5025941;28;20045;-59
2022/04/06 06:46:55;;;;;;;1.55;1.17;;;;;;;5.97;46.40;98016.25;5025940;28;20038;-59
2022/04/06 06:49:20;;;;;;;2.55;1.00;;;;;;;6.42;46.51;98023.47;5025911;28;20026;-59
2022/04/06 06:51:46;;;;;;;1.88;0.93;;;;;;;7.29;44.63;98018.03;5006421;28;20026;-59
2022/04/06 06:54:11;;;;;;;1.45;0.85;;;;;;;7.15;43.74;98021.09;5024881;28;20036;-59
2022/04/06 06:56:37;;;;;;;1.55;0.80;;;;;;;7.17;43.28;98027.88;5024825;28;20036;-59
2022/04/06 06:59:03;;;;;;;1.58;0.90;;;;;;;7.62;44.39;98017.72;5024990;28;20210;-58
2022/04/06 07:01:28;;;;;;;2.15;0.98;;;;;;;7.52;43.51;98025.78;5024585;28;20229;-58
2022/04/06 07:03:54;;;;;;;1.00;0.90;;;;;;;8.07;43.29;98024.66;5024500;28;20026;-59
2022/04/06 07:06:19;;;;;;;1.65;0.95;;;;;;;8.21;41.20;98027.53;5007681;28;20087;-59
2022/04/06 07:08:45;;;;;;;1.35;0.93;;;;;;;8.77;40.62;98015.84;5025524;28;20037;-59
2022/04/06 07:11:10;;;;;;;1.23;1.00;;;;;;;9.20;40.25;98028.72;5024330;28;20022;-58
2022/04/06 07:13:36;;;;;;;2.28;1.13;;;;;;;9.38;38.26;98026.22;5024152;28;20052;-59
2022/04/06 07:16:03;;;;;;;0.73;0.70;;;;;;;9.10;37.95;98027.44;5023739;28;20105;-59
2022/04/06 07:18:29;;;;;;;0.70;0.70;;;;;;;8.76;36.74;98032.22;5006677;28;20026;-58
2022/04/06 07:20:55;;;;;;;2.38;0.88;;;;;;;9.12;35.66;98039.38;5006158;28;20289;-58
2022/04/06 07:23:20;;;;;;;1.85;0.80;;;;;;;9.29;37.52;98037.81;5023731;28;20061;-59
2022/04/06 07:25:46;;;;;;;3.20;0.90;;;;;;;9.81;37.01;98043.25;5023690;28;20029;-58
2022/04/06 07:28:11;;;;;;;0.70;0.70;;;;;;;10.48;36.94;98035.06;5025084;28;20034;-59
2022/04/06 07:30:37;;;;;;;0.93;0.80;;;;;;;10.27;36.26;98042.06;5025048;28;20045;-58
2022/04/06 07:33:02;;;;;;;0.90;0.70;;;;;;;10.22;34.09;98046.59;5024920;28;20032;-58
2022/04/06 07:35:29;;;;;;;1.02;0.82;;;;;;;9.94;33.82;98051.31;5006954;28;20049;-58
2022/04/06 07:37:55;;;;;;;0.80;0.80;;;;;;;10.09;33.16;98052.38;5025051;28;20044;-58
2022/04/06 07:40:22;;;;;;;3.33;1.00;;;;;;;10.14;32.30;98057.31;5024438;28;20084;-59
2022/04/06 07:42:49;;;;;;;1.00;0.90;;;;;;;9.87;32.96;98067.19;5024840;28;20034;-59
2022/04/06 07:45:17;;;;;;;1.27;1.00;;;;;;;8.80;31.39;98069.09;5013585;28;20027;-58
2022/04/06 07:47:45;;;;;;;1.27;0.90;;;;;;;9.01;34.88;98057.06;5016067;28;20034;-58
2022/04/06 07:50:15;;;;;;;1.98;1.00;;;;;;;9.03;33.56;98046.66;5006907;28;20113;-58
2022/04/06 07:52:41;;;;;;;2.63;1.30;;;;;;;9.17;34.89;98057.25;5007740;28;20026;-58
2022/04/06 07:55:08;;;;;;;1.98;0.90;;;;;;;9.36;33.68;98053.88;5007155;28;20025;-58
2022/04/06 07:57:35;;;;;;;3.67;1.00;;;;;;;9.01;33.87;98054.47;5006818;28;20117;-58
2022/04/06 08:00:10;;;;;;;2.88;1.13;;;;;;;9.83;33.59;98069.03;5024530;28;20068;-58
2022/04/06 08:02:37;;;;;;;1.92;1.10;;;;;;;10.32;33.36;98050.47;5024401;28;20088;-57
2022/04/06 08:05:04;;;;;;;2.60;1.35;;;;;;;10.14;32.62;98041.81;5024327;28;20044;-58
2022/04/06 08:07:31;;;;;;;1.60;1.10;;;;;;;9.99;32.66;98040.75;5024749;28;20034;-58
2022/04/06 08:09:56;;;;;;;1.85;0.90;;;;;;;9.93;34.67;98043.63;5024181;28;20056;-58
2022/04/06 08:12:22;;;;;;;2.13;0.90;;;;;;;10.15;34.12;98049.50;5006876;28;20212;-58
2022/04/06 08:14:48;;;;;;;2.38;1.05;;;;;;;9.57;34.07;98055.53;5024003;28;20034;-58
2022/04/06 08:17:14;;;;;;;2.47;0.98;;;;;;;9.96;36.16;98053.81;5027165;28;20041;-58
2022/04/06 08:19:40;;;;;;;1.90;1.08;;;;;;;9.54;34.01;98047.09;5024255;28;20050;-58
2022/04/06 08:22:06;;;;;;;2.08;1.30;;;;;;;9.01;34.25;98054.47;5024050;28;20026;-57
2022/04/06 08:24:31;;;;;;;1.20;1.00;;;;;;;7.71;34.13;98067.19;5024367;28;20206;-58
2022/04/06 08:26:57;;;;;;;3.00;1.10;;;;;;;8.27;34.73;98063.38;5024124;28;20030;-59
2022/04/06 08:29:22;;;;;;;3.65;1.23;;;;;;;8.75;34.98;98053.81;5024056;28;20022;-58
2022/04/06 08:31:49;;;;;;;1.08;0.98;;;;;;;8.98;35.24;98070.94;5024490;28;20022;-58
2022/04/06 08:34:15;;;;;;;1.75;0.98;;;;;;;8.92;32.63;98070.34;5023866;28;20297;-58
2022/04/06 08:36:43;;;;;;;1.35;0.98;;;;;;;9.01;34.82;98059.63;5023912;28;20041;-58
2022/04/06 08:39:09;;;;;;;1.10;1.00;;;;;;;9.05;34.14;98062.91;5024005;28;20032;-58
2022/04/06 08:41:35;;;;;;;1.30;0.95;;;;;;;9.27;34.09;98060.28;5017354;28;20026;-57
2022/04/06 08:44:01;;;;;;;1.35;0.90;;;;;;;9.23;33.24;98069.91;5014460;28;20047;-58
2022/04/06 08:46:34;;;;;;;2.80;1.17;;;;;;;8.42;31.84;98010.38;5014661;28;20080;-58
2022/04/06 08:49:00;;;;;;;4.85;1.10;;;;;;;8.57;33.40;98034.72;5014865;28;20049;-57
2022/04/06 08:51:28;;;;;;;2.10;0.80;;;;;;;8.74;32.71;98012.59;5020725;28;20068;-58
2022/04/06 08:53:54;;;;;;;3.97;1.00;;;;;;;9.59;33.81;98060.63;5023781;28;20072;-58
2022/04/06 08:56:20;;;;;;;1.73;1.17;;;;;;;9.67;33.90;98064.56;5023844;28;20034;-59
2022/04/06 08:58:45;;;;;;;1.25;1.00;;;;;;;9.59;34.08;98056.31;5023852;28;20034;-60
2022/04/06 09:01:11;;;;;;;3.28;1.10;;;;;;;9.59;33.83;98063.22;5023143;28;20026;-57
2022/04/06 09:03:37;;;;;;;1.75;0.80;;;;;;;9.57;32.21;98068.47;5023521;28;20029;-57
2022/04/06 09:06:07;;;;;;;0.70;0.70;;;;;;;9.79;32.46;98063.19;5017869;28;20238;-57
2022/04/06 09:08:41;;;;;;;4.03;1.15;;;;;;;9.42;31.91;98064.81;5023531;28;20281;-57
2022/04/06 09:11:11;;;;;;;2.30;0.98;;;;;;;8.88;29.28;98061.03;5023095;28;20034;-58
2022/04/06 09:13:39;;;;;;;1.05;0.82;;;;;;;8.20;29.81;98076.59;5023465;28;20042;-58
2022/04/06 09:16:08;;;;;;;1.27;0.90;;;;;;;7.76;29.84;98034.34;5023316;28;20041;-58
2022/04/06 09:18:40;;;;;;;2.00;0.80;;;;;;;8.17;30.42;98025.13;5005716;28;20342;-58
2022/04/06 09:21:05;;;;;;;1.75;0.90;;;;;;;8.38;29.32;98073.28;5022936;28;20057;-58
2022/04/06 09:23:32;;;;;;;0.77;0.77;;;;;;;8.10;27.23;98087.22;5023200;28;20033;-58
2022/04/06 09:26:06;;;;;;;1.38;0.77;;;;;;;8.37;30.85;98068.19;5022997;28;20053;-58
2022/04/06 09:28:32;;;;;;;2.15;1.00;;;;;;;8.24;30.08;98070.41;5023247;28;20049;-57
2022/04/06 09:30:58;;;;;;;2.28;1.30;;;;;;;8.03;28.38;98072.06;5022744;28;20041;-59
2022/04/06 09:33:28;;;;;;;1.20;0.90;;;;;;;7.59;29.06;98083.91;5023023;28;20072;-58
2022/04/06 09:35:55;;;;;;;1.15;0.70;;;;;;;8.05;29.51;98067.66;5023305;28;20045;-58
2022/04/06 09:38:22;;;;;;;0.70;0.70;;;;;;;7.40;29.74;98021.09;5022898;28;20037;-59
2022/04/06 09:40:51;;;;;;;2.17;1.08;;;;;;;7.91;32.02;98076.78;5022639;28;20081;-58
2022/04/06 09:43:31;;;;;;;3.13;0.80;;;;;;;7.78;32.91;98072.94;5023182;28;20030;-59
2022/04/06 09:49:00;;;;;;;2.88;0.90;;;;;;;7.85;33.16;98076.16;5023215;28;20041;-58
2022/04/06 09:51:26;;;;;;;2.80;0.88;;;;;;;7.38;31.74;98072.66;5023100;28;20133;-57
2022/04/06 09:53:53;;;;;;;0.77;0.77;;;;;;;7.38;31.85;98061.47;5023358;28;20065;-57
2022/04/06 09:56:22;;;;;;;2.30;0.60;;;;;;;7.60;33.41;98064.16;5006639;28;20076;-57
2022/04/06 09:58:49;;;;;;;2.17;0.90;;;;;;;7.81;30.66;98072.00;5003590;28;20025;-58
2022/04/06 10:01:16;;;;;;;1.90;0.70;;;;;;;7.84;32.68;98077.88;5026606;28;20029;-57
2022/04/06 10:03:50;;;;;;;1.30;0.70;;;;;;;7.31;31.68;98029.13;5018775;28;20085;-58
2022/04/06 10:06:16;;;;;;;2.47;1.00;;;;;;;7.50;32.07;98078.25;5026985;28;20026;-58
2022/04/06 10:08:43;;;;;;;2.05;0.90;;;;;;;7.44;30.61;98066.44;5027066;28;20037;-57
2022/04/06 10:11:10;;;;;;;1.30;0.93;;;;;;;7.56;31.52;98054.84;5026828;28;20026;-58
2022/04/06 10:13:38;;;;;;;3.38;0.80;;;;;;;7.80;31.88;98062.59;5022100;28;20049;-59
2022/04/06 10:16:05;;;;;;;1.42;0.80;;;;;;;7.73;30.45;98072.28;5021173;28;20033;-58
2022/04/06 10:18:33;;;;;;;1.10;0.80;;;;;;;7.47;31.17;98037.13;5009460;28;20330;-57
2022/04/06 10:21:04;;;;;;;1.58;1.00;;;;;;;8.00;32.38;98072.19;5026889;28;20054;-57
2022/04/06 10:24:07;;;;;;;2.72;0.90;;;;;;;7.90;31.94;98062.19;5024730;28;20097;-58
2022/04/06 10:26:36;;;;;;;2.20;0.85;;;;;;;7.68;31.21;98061.28;5026333;28;20026;-58
2022/04/06 10:29:04;;;;;;;2.08;0.73;;;;;;;7.50;31.72;98014.69;5026615;28;20271;-58
2022/04/06 10:31:30;;;;;;;1.58;0.80;;;;;;;7.87;31.53;98066.63;5026543;28;20029;-58
2022/04/06 10:34:22;;;;;;;1.17;0.90;;;;;;;7.50;29.08;98060.22;5026895;28;20021;-58
2022/04/06 10:37:13;;;;;;;1.75;1.05;;;;;;;7.43;29.52;98067.31;5026115;28;20085;-58
2022/04/06 10:39:50;;;;;;;2.25;1.35;;;;;;;7.54;29.88;98064.34;5022069;28;20064;-58
2022/04/06 10:42:18;;;;;;;3.50;0.68;;;;;;;7.00;28.81;98007.03;5014563;28;20053;-57
2022/04/06 10:44:44;;;;;;;1.17;0.70;;;;;;;7.65;31.38;98058.84;5023983;28;20057;-59
2022/04/06 10:47:12;;;;;;;2.40;0.82;;;;;;;7.69;31.38;98065.56;5026038;28;20141;-58
2022/04/06 10:49:38;;;;;;;1.55;0.75;;;;;;;7.62;29.85;98064.94;5025968;28;20085;-58
2022/04/06 10:52:18;;;;;;;4.03;1.27;;;;;;;7.40;33.52;98044.25;5020360;28;20022;-57
2022/04/06 10:54:44;;;;;;;1.77;1.00;;;;;;;7.53;34.11;98065.28;5026377;28;20050;-57
2022/04/06 10:57:10;;;;;;;1.85;0.88;;;;;;;6.95;30.64;98061.22;5034782;28;20367;-57
2022/04/06 10:59:36;;;;;;;2.00;0.75;;;;;;;7.24;32.43;98065.38;5026182;28;20034;-57
2022/04/06 11:02:21;;;;;;;2.17;0.60;;;;;;;7.38;30.90;98062.34;5026089;28;20207;-57
2022/04/06 11:04:50;;;;;;;2.58;0.93;;;;;;;7.48;31.15;98041.41;5025649;28;20037;-58
2022/04/06 11:10:17;;;;;;;;;;;;;;;7.78;33.95;98055.75;5026401;28;20029;-58
2022/04/06 11:13:03;;;;;;;1.15;0.63;;;;;;;7.72;30.92;98043.09;5025809;28;19968;-58
2022/04/06 11:15:37;;;;;;;1.95;0.82;;;;;;;7.17;30.02;98001.28;5025934;28;20026;-58
2022/04/06 11:18:05;;;;;;;1.90;1.00;;;;;;;7.60;29.59;98056.44;5025786;28;20101;-58
2022/04/06 11:20:34;;;;;;;3.03;0.90;;;;;;;7.39;29.76;98053.69;5025529;28;20038;-58
2022/04/06 11:23:00;;;;;;;0.55;0.52;;;;;;;7.71;31.11;98054.31;5025883;28;20089;-58
2022/04/06 11:25:28;;;;;;;1.20;0.60;;;;;;;7.69;29.17;98039.78;5025777;28;20053;-58
2022/04/06 11:28:04;;;;;;;1.65;0.70;;;;;;;7.74;27.02;98049.03;5008203;28;20060;-61
2022/04/06 11:30:32;;;;;;;1.23;0.70;;;;;;;7.82;29.61;98045.34;5024978;28;20098;-58
2022/04/06 11:33:00;;;;;;;2.28;1.00;;;;;;;7.53;28.75;98042.09;5007124;28;20030;-58
2022/04/06 11:35:31;;;;;;;2.38;0.90;;;;;;;7.57;28.39;98046.25;5025256;28;20034;-58
2022/04/06 11:37:57;;;;;;;0.93;0.73;;;;;;;7.39;28.98;98045.97;5008026;28;20072;-58
2022/04/06 11:40:25;;;;;;;1.00;0.75;;;;;;;7.32;30.75;97990.44;5025049;28;20069;-58
2022/04/06 11:43:00;;;;;;;2.65;0.90;;;;;;;7.51;29.45;98023.25;5025235;28;20032;-58
2022/04/06 11:45:29;;;;;;;3.60;1.00;;;;;;;7.31;30.80;97987.91;5034469;28;20025;-58
2022/04/06 11:48:04;;;;;;;4.05;0.95;;;;;;;7.53;27.70;98008.59;5041191;28;20056;-57
2022/04/06 11:50:31;;;;;;;1.70;0.95;;;;;;;7.47;29.86;97988.19;5020269;28;20354;-57